createdAt,value
2022-11-07T00:13:29.896Z,3.14
2022-11-07T00:28:21.053Z,3.63
2022-11-07T00:43:12.722Z,2.64
2022-11-07T00:58:03.528Z,2.54
2022-11-07T01:12:55.038Z,2.86
2022-11-07T01:27:47.127Z,3.56
2022-11-07T01:42:37.790Z,2.11
2022-11-07T01:57:49.935Z,2.73
2022-11-07T02:12:46.248Z,2.12
2022-11-07T02:27:37.699Z,4.66
2022-11-07T02:42:28.923Z,2.47
2022-11-07T02:57:19.958Z,2.52
2022-11-07T03:12:11.918Z,2.23
2022-11-07T03:27:03.869Z,2.41
2022-11-07T03:41:55.822Z,3.77
2022-11-07T03:56:46.162Z,2.84
2022-11-07T04:11:55.888Z,3.86
2022-11-07T04:27:11.498Z,3.23
2022-11-07T04:42:07.966Z,2.67
2022-11-07T04:56:59.154Z,2.59
2022-11-07T05:11:49.737Z,2.79
2022-11-07T05:26:41.491Z,4.14
2022-11-07T05:41:34.223Z,4.13
2022-11-07T05:56:25.177Z,4.06
2022-11-07T06:11:16.709Z,5.04
2022-11-07T06:26:08.161Z,4.57
2022-11-07T06:41:07.974Z,2.81
2022-11-07T06:56:01.938Z,4.43
2022-11-07T07:10:53.319Z,5.02
2022-11-07T07:25:45.017Z,2.23
2022-11-07T07:40:39.030Z,4.04
2022-11-07T07:55:29.991Z,3.03
2022-11-07T08:25:16.096Z,5.03
2022-11-07T08:40:08.273Z,3.11
2022-11-07T08:55:01.169Z,5.98
2022-11-07T09:09:53.672Z,4.29
2022-11-07T09:24:46.270Z,3.93
2022-11-07T09:39:37.584Z,5.77
2022-11-07T09:54:31.768Z,4.68
2022-11-07T10:09:56.115Z,4.70
2022-11-07T10:25:13.030Z,3.11
2022-11-07T10:40:11.978Z,4.03
2022-11-07T10:55:12.669Z,3.04
2022-11-07T11:10:16.423Z,4.24
2022-11-07T11:25:15.377Z,4.68
2022-11-07T11:40:12.148Z,4.53
2022-11-07T11:55:15.113Z,3.84
2022-11-07T12:10:28.759Z,4.09
2022-11-07T12:25:37.616Z,5.23
2022-11-07T12:40:42.559Z,4.93
2022-11-07T12:55:43.402Z,3.01
2022-11-07T13:10:50.315Z,4.62
2022-11-07T13:25:49.935Z,2.81
2022-11-07T13:40:47.253Z,4.38
2022-11-07T13:55:41.601Z,3.17
2022-11-07T14:10:38.619Z,4.61
2022-11-07T14:25:33.313Z,3.57
2022-11-07T14:40:25.019Z,4.17
2022-11-07T14:55:25.361Z,3.89
2022-11-07T15:10:33.075Z,4.92
2022-11-07T15:25:37.474Z,4.34
2022-11-07T15:40:34.979Z,4.31
2022-11-07T15:55:25.737Z,5.50
2022-11-07T16:10:24.049Z,3.80
2022-11-07T16:25:22.894Z,5.19
2022-11-07T16:40:16.602Z,8.38
2022-11-07T16:55:06.445Z,5.13
2022-11-07T17:24:53.315Z,5.46
2022-11-07T17:39:43.740Z,7.27
2022-11-07T17:54:35.605Z,8.33
2022-11-07T18:09:28.440Z,9.74
2022-11-07T18:24:19.981Z,8.23
2022-11-07T18:39:16.332Z,9.77
2022-11-07T18:54:11.360Z,5.64
2022-11-07T19:09:02.967Z,8.59
2022-11-07T19:23:54.142Z,5.44
2022-11-07T19:38:44.575Z,5.97
2022-11-07T19:53:35.499Z,7.92
2022-11-07T20:08:27.267Z,6.57
2022-11-07T20:23:20.629Z,8.49
2022-11-07T20:38:14.278Z,8.63
2022-11-07T21:08:12.529Z,8.63
2022-11-07T21:23:03.623Z,10.58
2022-11-07T21:37:56.159Z,6.30
2022-11-07T21:52:49.445Z,5.41
2022-11-07T22:07:47.849Z,6.46
2022-11-07T22:22:36.761Z,9.32
2022-11-07T22:37:27.374Z,5.82
2022-11-07T22:52:18.054Z,8.19
2022-11-07T23:07:09.575Z,6.84
2022-11-07T23:22:00.871Z,8.74
2022-11-07T23:36:52.028Z,7.33
2022-11-07T23:51:42.174Z,7.52
